Time;durP1;ratioP1;P1;durP2;ratioP2;P2;SDS_P1;SDS_P2;PMS_P1;PMS_P2;Temp;Humidity;BMP_temperature;BMP_pressure;BME280_temperature;BME280_humidity;BME280_pressure;Samples;Min_cycle;Max_cycle;Signal;HPM_P1;HPM_P2
2023/12/15 00:01:04;;;;;;;15.80;9.65;;;9.40;78.70;;;;;;5054031;28;20449;-66
2023/12/15 00:03:30;;;;;;;14.90;8.18;;;9.30;78.70;;;;;;5053578;28;20052;-66
2023/12/15 00:05:57;;;;;;;14.70;8.55;;;9.30;78.70;;;;;;5052954;28;20033;-66
2023/12/15 00:08:24;;;;;;;15.82;8.45;;;9.40;78.70;;;;;;5052478;28;20040;-66
2023/12/15 00:10:50;;;;;;;12.88;7.97;;;9.40;78.80;;;;;;5052153;28;20107;-66
2023/12/15 00:13:16;;;;;;;13.27;7.68;;;9.40;78.70;;;;;;5053842;28;20117;-66
2023/12/15 00:15:42;;;;;;;12.93;7.60;;;9.40;78.60;;;;;;5053378;28;20468;-66
2023/12/15 00:18:08;;;;;;;12.23;7.70;;;9.40;78.60;;;;;;5053243;28;20033;-66
2023/12/15 00:20:34;;;;;;;14.95;8.38;;;9.30;78.60;;;;;;5050032;28;20339;-66
2023/12/15 00:23:00;;;;;;;16.58;8.10;;;9.30;78.70;;;;;;5051589;28;20064;-66
2023/12/15 00:25:25;;;;;;;13.63;8.00;;;9.30;78.70;;;;;;5053153;28;20025;-66
2023/12/15 00:27:51;;;;;;;15.18;8.55;;;9.40;78.80;;;;;;5053262;28;20040;-66
2023/12/15 00:30:17;;;;;;;13.77;8.05;;;9.40;78.80;;;;;;5051725;28;20564;-66
2023/12/15 00:32:44;;;;;;;13.13;7.45;;;9.40;78.80;;;;;;5052724;28;20025;-66
2023/12/15 00:35:09;;;;;;;13.80;7.70;;;9.40;78.80;;;;;;5052148;28;20032;-66
2023/12/15 00:37:35;;;;;;;16.35;8.63;;;9.40;78.90;;;;;;5053805;28;20353;-66
2023/12/15 00:40:01;;;;;;;14.25;8.13;;;9.30;79.00;;;;;;5052161;28;20025;-65
2023/12/15 00:42:27;;;;;;;12.43;7.85;;;9.30;79.00;;;;;;5049739;28;20049;-65
2023/12/15 00:44:55;;;;;;;14.27;8.18;;;9.30;79.00;;;;;;5052336;28;20071;-66
2023/12/15 00:47:21;;;;;;;12.88;7.82;;;9.30;79.10;;;;;;5053349;28;20025;-65
2023/12/15 00:49:46;;;;;;;15.75;7.93;;;9.40;79.20;;;;;;5052793;28;20096;-66
2023/12/15 00:52:12;;;;;;;15.02;8.40;;;9.30;79.90;;;;;;5053424;28;20119;-65
2023/12/15 00:54:38;;;;;;;13.70;8.38;;;9.30;79.30;;;;;;5053136;28;20036;-66
2023/12/15 00:57:04;;;;;;;15.55;8.48;;;9.30;79.40;;;;;;5053527;28;20029;-65
2023/12/15 00:59:29;;;;;;;16.20;9.73;;;9.30;79.40;;;;;;5051689;28;20083;-65
2023/12/15 01:01:55;;;;;;;16.55;9.57;;;9.30;79.50;;;;;;5052367;28;20361;-65
2023/12/15 01:04:21;;;;;;;13.32;8.32;;;9.30;80.20;;;;;;5052712;28;20029;-66
2023/12/15 01:06:47;;;;;;;15.25;9.75;;;9.30;79.60;;;;;;5056244;28;20426;-66
2023/12/15 01:09:12;;;;;;;17.17;10.00;;;9.40;79.70;;;;;;5056445;28;20041;-65
2023/12/15 01:11:38;;;;;;;18.52;11.10;;;9.40;79.70;;;;;;5057301;28;20128;-65
2023/12/15 01:14:04;;;;;;;22.95;11.88;;;9.40;79.70;;;;;;5055946;28;20029;-65
2023/12/15 01:16:29;;;;;;;23.88;11.82;;;9.40;79.80;;;;;;5039441;28;20040;-65
2023/12/15 01:18:55;;;;;;;19.50;11.38;;;9.40;79.90;;;;;;5055855;28;20035;-66
2023/12/15 01:21:21;;;;;;;21.75;12.25;;;9.40;80.00;;;;;;5054986;28;20048;-65
2023/12/15 01:23:47;;;;;;;21.77;12.60;;;9.40;80.00;;;;;;5056016;28;20445;-65
2023/12/15 01:26:12;;;;;;;22.00;13.95;;;9.40;80.00;;;;;;5055737;28;20108;-65
2023/12/15 01:28:38;;;;;;;22.23;13.85;;;9.40;80.10;;;;;;5055175;28;20052;-66
2023/12/15 01:31:04;;;;;;;23.25;14.15;;;9.40;80.20;;;;;;5055815;28;20032;-65
2023/12/15 01:33:30;;;;;;;22.15;13.35;;;9.40;80.20;;;;;;5056079;28;20087;-66
2023/12/15 01:35:56;;;;;;;22.38;15.35;;;9.40;80.20;;;;;;5062148;28;20036;-65
2023/12/15 01:38:22;;;;;;;23.40;14.55;;;9.40;80.30;;;;;;5070699;28;20036;-65
2023/12/15 01:40:48;;;;;;;23.88;14.90;;;9.40;80.40;;;;;;5058778;28;20385;-66
2023/12/15 01:43:13;;;;;;;25.10;15.77;;;9.40;80.40;;;;;;5063206;28;20091;-66
2023/12/15 01:45:39;;;;;;;26.80;17.10;;;9.40;80.50;;;;;;5077622;28;20442;-65
2023/12/15 01:48:07;;;;;;;25.92;16.90;;;9.40;80.50;;;;;;5065234;28;20029;-65
2023/12/15 01:50:32;;;;;;;25.48;16.80;;;9.50;80.60;;;;;;5043285;28;20473;-65
2023/12/15 01:52:58;;;;;;;24.60;16.75;;;9.50;80.60;;;;;;5063143;28;20027;-67
2023/12/15 01:55:24;;;;;;;30.58;17.20;;;9.50;80.60;;;;;;5060334;28;20024;-65
2023/12/15 01:57:50;;;;;;;27.23;17.02;;;9.50;80.60;;;;;;5049586;28;20047;-65
2023/12/15 02:00:16;;;;;;;26.85;18.00;;;9.50;80.60;;;;;;5059479;28;20086;-65
2023/12/15 02:02:42;;;;;;;28.42;17.35;;;9.50;80.70;;;;;;5067540;28;20029;-65
2023/12/15 02:05:07;;;;;;;29.75;17.80;;;9.50;80.80;;;;;;5055345;28;20111;-65
2023/12/15 02:07:33;;;;;;;30.33;17.45;;;9.50;80.80;;;;;;5057249;28;20082;-65
2023/12/15 02:09:59;;;;;;;26.95;18.75;;;9.50;80.90;;;;;;5070703;28;20063;-65
2023/12/15 02:12:25;;;;;;;30.40;18.45;;;9.40;80.90;;;;;;5065766;28;20158;-65
2023/12/15 02:14:50;;;;;;;31.20;18.85;;;9.40;81.00;;;;;;5056287;28;20082;-65
2023/12/15 02:17:16;;;;;;;27.98;17.65;;;9.40;81.10;;;;;;5055480;28;20033;-65
2023/12/15 02:19:42;;;;;;;33.80;19.42;;;9.50;81.10;;;;;;5074596;28;20044;-65
2023/12/15 02:22:08;;;;;;;29.92;18.75;;;9.50;81.10;;;;;;5063692;28;20043;-65
2023/12/15 02:24:34;;;;;;;29.83;18.40;;;9.50;81.10;;;;;;5059963;28;20116;-65
2023/12/15 02:27:00;;;;;;;33.80;20.90;;;9.50;81.20;;;;;;5059819;28;20170;-65
2023/12/15 02:29:27;;;;;;;34.38;21.00;;;9.50;81.20;;;;;;5069052;28;20060;-65
2023/12/15 02:31:54;;;;;;;30.80;19.33;;;9.50;81.30;;;;;;5067029;28;20040;-65
2023/12/15 02:34:20;;;;;;;29.58;19.77;;;9.50;81.30;;;;;;5062978;28;20044;-66
2023/12/15 02:36:45;;;;;;;29.38;18.60;;;9.50;81.30;;;;;;5052197;28;20021;-65
2023/12/15 02:39:11;;;;;;;30.98;20.52;;;9.50;81.30;;;;;;5064609;28;20084;-65
2023/12/15 02:41:37;;;;;;;31.10;19.65;;;9.50;81.40;;;;;;5042427;28;20029;-66
2023/12/15 02:44:03;;;;;;;34.42;20.20;;;9.50;81.40;;;;;;5074391;28;20032;-65
2023/12/15 02:46:28;;;;;;;29.48;19.83;;;9.50;81.40;;;;;;5061961;28;20036;-65
2023/12/15 02:48:55;;;;;;;31.08;19.27;;;9.50;81.50;;;;;;5066622;28;20060;-65
2023/12/15 02:51:28;;;;;;;34.65;20.65;;;9.50;81.50;;;;;;5054996;28;20021;-65
2023/12/15 02:53:54;;;;;;;33.70;20.23;;;9.50;81.50;;;;;;5057725;28;20068;-66
2023/12/15 02:56:20;;;;;;;31.17;20.75;;;9.50;81.50;;;;;;5057485;28;20021;-65
2023/12/15 02:58:46;;;;;;;36.13;21.52;;;9.50;81.50;;;;;;5044367;28;20159;-65
2023/12/15 03:01:12;;;;;;;32.42;20.60;;;9.50;81.60;;;;;;5057341;28;20365;-65
2023/12/15 03:03:37;;;;;;;34.55;21.40;;;9.60;81.70;;;;;;5069084;28;20405;-65
2023/12/15 03:06:03;;;;;;;36.65;21.73;;;9.50;81.60;;;;;;5059361;28;20115;-65
2023/12/15 03:08:29;;;;;;;34.80;20.98;;;9.50;81.60;;;;;;5057402;28;20049;-65
2023/12/15 03:10:57;;;;;;;35.45;22.50;;;9.50;81.70;;;;;;5057119;28;20161;-65
2023/12/15 03:13:24;;;;;;;36.75;20.92;;;9.60;81.80;;;;;;5066466;28;20043;-66
2023/12/15 03:15:50;;;;;;;38.05;20.88;;;9.60;81.80;;;;;;5054668;28;20041;-65
2023/12/15 03:18:16;;;;;;;39.20;22.08;;;9.60;81.80;;;;;;5036843;28;20035;-65
2023/12/15 03:20:43;;;;;;;39.35;21.92;;;9.60;82.50;;;;;;5069180;28;20040;-65
2023/12/15 03:23:08;;;;;;;40.53;22.73;;;9.60;81.80;;;;;;5064004;28;20028;-65
2023/12/15 03:25:34;;;;;;;44.00;20.95;;;9.60;81.90;;;;;;5064780;28;20037;-65
2023/12/15 03:28:00;;;;;;;38.97;21.50;;;9.60;81.90;;;;;;5065666;28;20342;-65
2023/12/15 03:30:26;;;;;;;36.85;21.13;;;9.60;81.90;;;;;;5057944;28;20077;-65
2023/12/15 03:32:51;;;;;;;43.67;23.30;;;9.60;81.90;;;;;;5065875;28;20092;-65
2023/12/15 03:35:18;;;;;;;40.72;21.10;;;9.60;81.90;;;;;;5064709;28;20025;-65
2023/12/15 03:37:44;;;;;;;36.30;19.95;;;9.60;82.00;;;;;;5055087;28;20025;-65
2023/12/15 03:40:11;;;;;;;38.40;22.52;;;9.60;82.00;;;;;;5052650;28;20029;-65
2023/12/15 03:42:37;;;;;;;43.15;21.95;;;9.60;82.10;;;;;;5060553;28;20032;-65
2023/12/15 03:45:04;;;;;;;41.15;23.13;;;9.60;82.10;;;;;;5070261;28;20094;-65
2023/12/15 03:47:30;;;;;;;39.40;22.20;;;9.60;82.10;;;;;;5061231;28;20465;-65
2023/12/15 03:49:56;;;;;;;38.60;21.80;;;9.60;82.20;;;;;;5058111;28;20041;-66
2023/12/15 03:52:23;;;;;;;45.45;23.77;;;9.60;82.20;;;;;;5046565;28;20028;-65
2023/12/15 03:54:49;;;;;;;46.83;23.80;;;9.60;82.20;;;;;;5060372;28;20029;-65
2023/12/15 03:57:15;;;;;;;38.85;22.55;;;9.60;82.30;;;;;;5064550;28;20020;-66
2023/12/15 03:59:40;;;;;;;37.38;22.02;;;9.60;82.30;;;;;;5053277;28;20347;-65
2023/12/15 04:02:11;;;;;;;43.55;22.63;;;9.60;82.30;;;;;;5066693;28;20115;-65
2023/12/15 04:04:37;;;;;;;39.33;21.95;;;9.60;82.30;;;;;;5039956;28;20182;-65
2023/12/15 04:07:03;;;;;;;42.15;22.83;;;9.60;82.30;;;;;;5065895;28;20119;-65
2023/12/15 04:09:29;;;;;;;41.72;22.25;;;9.60;82.30;;;;;;5064421;28;20104;-65
2023/12/15 04:11:55;;;;;;;43.03;23.52;;;9.60;82.40;;;;;;5055524;28;20457;-65
2023/12/15 04:14:20;;;;;;;43.03;24.02;;;9.60;82.40;;;;;;5064835;28;20024;-65
2023/12/15 04:16:46;;;;;;;48.92;24.55;;;9.70;82.50;;;;;;5072543;28;20028;-65
2023/12/15 04:19:12;;;;;;;49.25;22.65;;;9.70;82.50;;;;;;5071470;28;20017;-65
2023/12/15 04:21:37;;;;;;;38.25;23.10;;;9.70;82.50;;;;;;5068505;28;20024;-65
2023/12/15 04:24:04;;;;;;;43.25;23.40;;;9.70;82.50;;;;;;5049569;28;20438;-65
2023/12/15 04:26:29;;;;;;;43.15;24.98;;;9.70;82.50;;;;;;5052265;28;20047;-65
2023/12/15 04:28:55;;;;;;;42.00;23.92;;;9.70;82.50;;;;;;5046520;28;20128;-66
2023/12/15 04:31:21;;;;;;;46.78;23.10;;;9.70;82.60;;;;;;5035747;28;20037;-65
2023/12/15 04:33:47;;;;;;;42.00;24.02;;;9.70;82.60;;;;;;5043150;28;20032;-65
2023/12/15 04:36:12;;;;;;;45.15;25.23;;;9.70;82.70;;;;;;5063658;28;20024;-65
2023/12/15 04:38:38;;;;;;;41.38;23.38;;;9.70;82.70;;;;;;5044734;28;20334;-65
2023/12/15 04:41:04;;;;;;;46.17;23.98;;;9.70;82.70;;;;;;5052998;28;20112;-66
2023/12/15 04:43:30;;;;;;;44.33;24.17;;;9.70;82.70;;;;;;5047184;28;20028;-65
2023/12/15 04:45:56;;;;;;;47.10;25.13;;;9.70;82.70;;;;;;5039813;28;20029;-65
2023/12/15 04:48:22;;;;;;;44.50;24.92;;;9.70;82.70;;;;;;5037046;28;20033;-65
2023/12/15 04:50:49;;;;;;;47.50;25.55;;;9.70;82.70;;;;;;5038847;28;20421;-65
2023/12/15 04:53:15;;;;;;;45.60;24.05;;;9.70;82.70;;;;;;5034080;28;20033;-65
2023/12/15 04:55:40;;;;;;;42.80;24.85;;;9.70;82.80;;;;;;5039738;28;20037;-65
2023/12/15 04:58:07;;;;;;;44.90;24.15;;;9.70;82.80;;;;;;5051619;28;20029;-65
2023/12/15 05:00:32;;;;;;;48.97;25.02;;;9.80;82.90;;;;;;5045959;28;20271;-66
2023/12/15 05:02:59;;;;;;;45.50;23.90;;;9.70;83.50;;;;;;5038615;28;20125;-65
2023/12/15 05:05:26;;;;;;;42.83;23.02;;;9.80;82.90;;;;;;5036391;28;20025;-65
2023/12/15 05:07:52;;;;;;;41.22;23.67;;;9.80;82.90;;;;;;5046557;28;20318;-65
2023/12/15 05:10:18;;;;;;;44.47;24.52;;;9.80;82.90;;;;;;5052532;28;20100;-65
2023/12/15 05:12:44;;;;;;;40.65;22.00;;;9.80;82.90;;;;;;5053182;28;20067;-65
2023/12/15 05:15:10;;;;;;;45.70;24.90;;;9.80;82.90;;;;;;5052547;28;20041;-65
2023/12/15 05:17:35;;;;;;;45.83;24.05;;;9.80;83.00;;;;;;5047812;28;20063;-65
2023/12/15 05:20:04;;;;;;;40.40;23.80;;;9.80;83.00;;;;;;5016898;28;20060;-65
2023/12/15 05:22:29;;;;;;;42.55;23.63;;;9.80;83.00;;;;;;5035362;28;20032;-66
2023/12/15 05:24:55;;;;;;;42.85;23.67;;;9.80;83.00;;;;;;5053460;28;20362;-65
2023/12/15 05:27:21;;;;;;;41.22;22.85;;;9.80;83.00;;;;;;5051738;28;20013;-65
2023/12/15 05:29:47;;;;;;;41.85;22.83;;;9.80;83.00;;;;;;5053153;28;20410;-65
2023/12/15 05:32:14;;;;;;;41.25;24.20;;;9.80;83.10;;;;;;5052108;28;20457;-65
2023/12/15 05:34:40;;;;;;;34.45;21.80;;;9.80;83.10;;;;;;5051138;28;20036;-65
2023/12/15 05:37:06;;;;;;;37.75;22.48;;;9.80;83.10;;;;;;5048659;28;21366;-65
2023/12/15 05:39:32;;;;;;;37.92;23.17;;;9.80;83.20;;;;;;5051156;28;20037;-66
2023/12/15 05:41:58;;;;;;;39.88;23.42;;;9.80;83.20;;;;;;5050991;28;20021;-65
2023/12/15 05:44:24;;;;;;;34.38;21.20;;;9.80;83.20;;;;;;5062903;28;20035;-65
2023/12/15 05:46:49;;;;;;;39.72;23.63;;;9.80;83.20;;;;;;5064345;28;20075;-66
2023/12/15 05:49:15;;;;;;;40.58;22.38;;;9.80;83.30;;;;;;5063770;28;20094;-65
2023/12/15 05:51:47;;;;;;;39.70;23.05;;;9.80;83.30;;;;;;5064698;28;20096;-65
2023/12/15 05:54:13;;;;;;;42.22;23.15;;;9.80;83.30;;;;;;5061459;28;20086;-64
2023/12/15 05:56:39;;;;;;;40.25;20.67;;;9.90;83.40;;;;;;5063217;28;20029;-64
2023/12/15 05:59:05;;;;;;;40.17;22.73;;;9.80;83.40;;;;;;5075480;28;20459;-64
2023/12/15 06:01:30;;;;;;;40.45;22.77;;;9.80;83.40;;;;;;5075962;28;20036;-64
2023/12/15 06:03:57;;;;;;;36.08;22.70;;;9.80;83.40;;;;;;5059680;28;20040;-64
2023/12/15 06:06:23;;;;;;;39.38;22.27;;;9.80;83.40;;;;;;5066769;28;20032;-64
2023/12/15 06:08:48;;;;;;;35.13;21.67;;;9.90;83.50;;;;;;5060997;28;20036;-64
2023/12/15 06:11:14;;;;;;;40.38;23.75;;;9.90;83.60;;;;;;5069523;28;20441;-64
2023/12/15 06:13:41;;;;;;;44.60;24.75;;;9.80;83.50;;;;;;5046989;28;20033;-64
2023/12/15 06:16:07;;;;;;;40.55;23.95;;;9.80;83.50;;;;;;5062209;28;20028;-65
2023/12/15 06:18:33;;;;;;;42.75;23.65;;;9.80;83.50;;;;;;5067351;28;20047;-65
2023/12/15 06:20:59;;;;;;;46.38;23.42;;;9.90;83.60;;;;;;5060321;28;20024;-64
2023/12/15 06:23:25;;;;;;;48.80;24.23;;;9.90;83.60;;;;;;5065420;28;20392;-65
2023/12/15 06:25:51;;;;;;;41.22;23.02;;;9.90;83.60;;;;;;5047569;28;20087;-64
2023/12/15 06:28:16;;;;;;;41.38;24.05;;;9.90;83.60;;;;;;5076510;28;20106;-64
2023/12/15 06:30:42;;;;;;;44.13;23.73;;;9.90;83.60;;;;;;5075394;28;20089;-65
2023/12/15 06:33:08;;;;;;;49.78;24.65;;;9.90;83.60;;;;;;5049371;28;20045;-65
2023/12/15 06:35:34;;;;;;;39.35;22.73;;;9.90;83.60;;;;;;5061843;28;20400;-66
2023/12/15 06:38:00;;;;;;;39.42;22.80;;;9.90;83.70;;;;;;5072925;28;20116;-65
2023/12/15 06:40:25;;;;;;;39.90;23.08;;;9.90;83.70;;;;;;5064491;28;20491;-66
2023/12/15 06:42:51;;;;;;;44.28;22.58;;;9.90;83.70;;;;;;5072579;28;20119;-64
2023/12/15 06:45:17;;;;;;;38.58;23.13;;;9.90;83.60;;;;;;5059367;28;20060;-64
2023/12/15 06:47:43;;;;;;;43.70;23.33;;;10.00;83.70;;;;;;5076859;28;20368;-64
2023/12/15 06:50:09;;;;;;;40.08;21.83;;;10.00;83.60;;;;;;5056677;28;20024;-65
2023/12/15 06:52:36;;;;;;;39.90;23.95;;;10.00;83.60;;;;;;5063529;28;20025;-64
2023/12/15 06:55:03;;;;;;;42.00;24.02;;;10.00;83.60;;;;;;5056808;28;20103;-64
2023/12/15 06:57:29;;;;;;;41.65;23.50;;;10.00;83.60;;;;;;5053434;28;20036;-64
2023/12/15 06:59:55;;;;;;;44.45;24.00;;;10.00;83.60;;;;;;5059632;28;20369;-64
2023/12/15 07:02:21;;;;;;;41.75;21.60;;;10.00;83.60;;;;;;5073935;28;20035;-64
2023/12/15 07:04:47;;;;;;;40.50;23.10;;;10.00;83.60;;;;;;5074260;28;20032;-64
2023/12/15 07:07:12;;;;;;;46.03;23.08;;;10.00;83.60;;;;;;5074952;28;20024;-64
2023/12/15 07:09:38;;;;;;;41.75;23.90;;;10.00;83.60;;;;;;5075021;28;20040;-63
2023/12/15 07:12:04;;;;;;;39.05;22.80;;;10.00;83.70;;;;;;5053050;28;20021;-64
2023/12/15 07:14:30;;;;;;;38.88;23.90;;;10.00;83.70;;;;;;5066755;28;20033;-64
2023/12/15 07:16:56;;;;;;;37.30;21.67;;;9.90;83.70;;;;;;5075771;28;20102;-64
2023/12/15 07:19:21;;;;;;;35.90;20.60;;;10.00;83.80;;;;;;5052348;28;20013;-64
2023/12/15 07:21:47;;;;;;;33.25;20.17;;;10.00;83.80;;;;;;5066284;28;20028;-64
2023/12/15 07:24:13;;;;;;;34.63;21.10;;;10.00;83.80;;;;;;5075290;28;20028;-64
2023/12/15 07:26:39;;;;;;;39.20;22.15;;;10.00;83.80;;;;;;5074173;28;20115;-64
2023/12/15 07:29:05;;;;;;;34.30;21.92;;;10.00;83.80;;;;;;5074473;28;20106;-64
2023/12/15 07:31:31;;;;;;;38.05;21.67;;;10.00;83.80;;;;;;5058332;28;20353;-64
2023/12/15 07:33:56;;;;;;;35.80;21.35;;;10.00;83.80;;;;;;5055800;28;20024;-64
2023/12/15 07:36:22;;;;;;;35.55;20.85;;;10.00;83.80;;;;;;5073986;28;20453;-64
2023/12/15 07:38:48;;;;;;;40.13;21.58;;;10.00;83.80;;;;;;5075020;28;20043;-64
2023/12/15 07:41:14;;;;;;;33.17;20.38;;;10.00;83.80;;;;;;5061299;28;20025;-64
2023/12/15 07:43:40;;;;;;;38.17;21.50;;;10.00;83.80;;;;;;5074116;28;20031;-63
2023/12/15 07:46:16;;;;;;;38.17;21.38;;;10.00;83.80;;;;;;5073917;28;20516;-64
2023/12/15 07:48:42;;;;;;;36.90;20.52;;;10.00;83.80;;;;;;5071327;28;20025;-63
2023/12/15 07:51:18;;;;;;;35.42;20.27;;;10.10;83.80;;;;;;5064444;28;20435;-64
2023/12/15 07:53:44;;;;;;;38.33;21.60;;;10.10;83.80;;;;;;5073718;28;20024;-64
2023/12/15 07:56:27;;;;;;;37.13;21.42;;;10.00;83.80;;;;;;5075137;28;20043;-64
2023/12/15 07:58:54;;;;;;;35.40;20.67;;;10.00;83.80;;;;;;5074591;28;20032;-64
2023/12/15 08:01:21;;;;;;;36.55;20.75;;;10.00;83.80;;;;;;5066790;28;20119;-64
2023/12/15 08:03:47;;;;;;;35.63;20.67;;;10.00;83.80;;;;;;5074131;28;20051;-64
2023/12/15 08:06:14;;;;;;;29.42;18.92;;;10.00;83.80;;;;;;5074507;28;20136;-64
2023/12/15 08:08:44;;;;;;;30.90;18.98;;;10.10;83.90;;;;;;5074406;28;20078;-64
2023/12/15 08:11:11;;;;;;;35.50;20.67;;;10.10;83.90;;;;;;5068433;28;20040;-64
2023/12/15 08:13:37;;;;;;;36.10;19.95;;;10.10;83.90;;;;;;5070289;28;20029;-64
2023/12/15 08:16:04;;;;;;;35.13;20.42;;;10.10;83.90;;;;;;5073864;28;20119;-64
2023/12/15 08:18:30;;;;;;;33.55;19.80;;;10.10;83.90;;;;;;5073711;28;20032;-64
2023/12/15 08:20:57;;;;;;;38.17;21.42;;;10.20;83.90;;;;;;5068626;28;20123;-64
2023/12/15 08:23:22;;;;;;;32.78;20.17;;;10.10;83.80;;;;;;5073579;28;20024;-64
2023/12/15 08:25:48;;;;;;;32.85;20.52;;;10.10;83.80;;;;;;5074672;28;20043;-64
2023/12/15 08:28:14;;;;;;;34.42;20.77;;;10.10;83.80;;;;;;5074138;28;20055;-64
2023/12/15 08:30:41;;;;;;;32.40;19.35;;;10.10;83.90;;;;;;5058988;28;20017;-64
2023/12/15 08:33:07;;;;;;;32.22;18.88;;;10.10;83.90;;;;;;5047606;28;20025;-63
2023/12/15 08:35:33;;;;;;;32.67;19.73;;;10.10;83.90;;;;;;5065935;28;20043;-64
2023/12/15 08:37:59;;;;;;;30.95;18.40;;;10.10;83.90;;;;;;5073202;28;20341;-64
2023/12/15 08:40:25;;;;;;;34.22;21.17;;;10.10;83.90;;;;;;5074562;28;20016;-64
2023/12/15 08:42:51;;;;;;;31.95;20.63;;;10.20;84.00;;;;;;5074120;28;20033;-64
2023/12/15 08:45:17;;;;;;;33.25;19.88;;;10.20;84.00;;;;;;5070549;28;20020;-64
2023/12/15 08:47:43;;;;;;;32.97;19.02;;;10.20;84.00;;;;;;5073124;28;20457;-65
2023/12/15 08:50:09;;;;;;;32.63;19.75;;;10.20;84.00;;;;;;5073156;28;20116;-64
2023/12/15 08:52:35;;;;;;;36.33;19.85;;;10.20;84.00;;;;;;5074601;28;20028;-64
2023/12/15 08:55:01;;;;;;;37.03;20.50;;;10.20;84.00;;;;;;5059026;28;20029;-64
2023/12/15 08:57:27;;;;;;;35.88;19.13;;;10.20;83.90;;;;;;5072926;28;20081;-64
2023/12/15 08:59:53;;;;;;;30.42;19.20;;;10.20;83.90;;;;;;5072971;28;20119;-64
2023/12/15 09:02:19;;;;;;;34.13;18.65;;;10.20;83.90;;;;;;5074091;28;20016;-64
2023/12/15 09:04:46;;;;;;;35.58;18.90;;;10.20;83.90;;;;;;5065284;28;20025;-64
2023/12/15 09:07:12;;;;;;;31.30;18.83;;;10.20;83.90;;;;;;5070919;28;20027;-64
2023/12/15 09:09:38;;;;;;;29.63;18.63;;;10.30;83.90;;;;;;5074286;28;20029;-63
2023/12/15 09:12:05;;;;;;;34.30;19.45;;;10.30;83.90;;;;;;5072776;28;20020;-64
2023/12/15 09:14:31;;;;;;;30.70;17.58;;;10.30;83.90;;;;;;5068969;28;20036;-64
2023/12/15 09:16:57;;;;;;;31.75;18.15;;;10.30;83.90;;;;;;5051937;28;20029;-64
2023/12/15 09:19:25;;;;;;;28.88;16.58;;;10.30;83.90;;;;;;5056610;28;20120;-64
2023/12/15 09:21:51;;;;;;;27.15;17.05;;;10.40;83.90;;;;;;5060618;28;20041;-64
2023/12/15 09:24:17;;;;;;;27.85;17.55;;;10.40;83.80;;;;;;5071227;28;20051;-64
2023/12/15 09:26:47;;;;;;;28.70;16.50;;;10.40;83.80;;;;;;5068923;28;20136;-64
2023/12/15 09:29:13;;;;;;;29.90;16.63;;;10.40;83.80;;;;;;5071836;28;20048;-64
2023/12/15 09:31:40;;;;;;;31.33;16.55;;;10.40;83.80;;;;;;5046487;28;20035;-64
2023/12/15 09:34:06;;;;;;;28.08;17.33;;;10.40;83.80;;;;;;5072934;28;20353;-64
2023/12/15 09:36:32;;;;;;;30.25;17.92;;;10.50;83.80;;;;;;5068915;28;20095;-64
2023/12/15 09:38:57;;;;;;;30.67;16.85;;;10.50;83.80;;;;;;5068966;28;20036;-64
2023/12/15 09:41:23;;;;;;;28.08;16.58;;;10.50;83.90;;;;;;5077738;28;20028;-64
2023/12/15 09:43:50;;;;;;;30.38;17.17;;;10.50;83.80;;;;;;5060149;28;20028;-64
2023/12/15 09:46:16;;;;;;;30.73;17.27;;;10.50;83.80;;;;;;5068380;28;20033;-64
2023/12/15 09:48:43;;;;;;;28.95;15.82;;;10.50;83.90;;;;;;5074971;28;20024;-64
2023/12/15 09:51:15;;;;;;;25.75;15.93;;;10.50;83.80;;;;;;5076256;28;20033;-64
2023/12/15 09:53:45;;;;;;;24.65;16.30;;;10.50;83.90;;;;;;5076775;28;20551;-64
2023/12/15 09:56:11;;;;;;;26.65;15.30;;;10.60;83.90;;;;;;5074633;28;20456;-64
2023/12/15 09:58:38;;;;;;;26.00;16.02;;;10.60;83.80;;;;;;5073760;28;20105;-64
2023/12/15 10:01:04;;;;;;;27.67;16.38;;;10.60;83.80;;;;;;5075947;28;20350;-64
2023/12/15 10:03:31;;;;;;;25.38;15.48;;;10.60;83.80;;;;;;5077465;28;20090;-64
2023/12/15 10:05:57;;;;;;;23.58;13.85;;;10.60;83.80;;;;;;5077118;28;20110;-64
2023/12/15 10:08:24;;;;;;;24.90;14.50;;;10.70;83.80;;;;;;5073886;28;20033;-64
2023/12/15 10:10:53;;;;;;;25.17;14.93;;;10.70;83.90;;;;;;5076160;28;20028;-64
2023/12/15 10:13:18;;;;;;;24.73;14.75;;;10.70;83.80;;;;;;5072463;28;20048;-64
2023/12/15 10:15:49;;;;;;;23.75;14.30;;;10.70;83.80;;;;;;5076660;28;20430;-64
2023/12/15 10:18:15;;;;;;;24.48;14.25;;;10.70;83.80;;;;;;5069062;28;20115;-64
2023/12/15 10:20:41;;;;;;;26.80;15.25;;;10.70;83.80;;;;;;5077051;28;20071;-64
2023/12/15 10:23:07;;;;;;;23.52;13.75;;;10.70;83.80;;;;;;5076870;28;20086;-64
2023/12/15 10:25:33;;;;;;;25.38;14.48;;;10.80;83.80;;;;;;5076453;28;20051;-64
2023/12/15 10:27:59;;;;;;;25.88;14.77;;;10.70;83.80;;;;;;5069960;28;20112;-65
2023/12/15 10:30:25;;;;;;;25.05;14.27;;;10.70;83.70;;;;;;5071076;28;20036;-65
2023/12/15 10:32:56;;;;;;;26.23;14.98;;;10.80;83.80;;;;;;5058592;28;20021;-64
2023/12/15 10:35:25;;;;;;;26.77;14.00;;;10.80;83.80;;;;;;5076013;28;20349;-64
2023/12/15 10:37:52;;;;;;;20.85;13.45;;;10.80;83.70;;;;;;5069808;28;20091;-64
2023/12/15 10:40:18;;;;;;;24.85;14.05;;;10.80;83.70;;;;;;5058371;28;20021;-64
2023/12/15 10:42:44;;;;;;;25.02;13.70;;;10.80;83.70;;;;;;5076266;28;20051;-64
2023/12/15 10:45:10;;;;;;;26.58;12.90;;;10.90;83.80;;;;;;5075424;28;20120;-64
2023/12/15 10:47:37;;;;;;;24.85;13.10;;;10.90;83.70;;;;;;5075351;28;20020;-64
2023/12/15 10:50:04;;;;;;;24.63;12.73;;;10.90;83.70;;;;;;5055745;28;20044;-64
2023/12/15 10:52:33;;;;;;;24.05;12.40;;;10.90;83.70;;;;;;5076572;28;20020;-64
2023/12/15 10:55:03;;;;;;;22.65;12.68;;;10.90;83.70;;;;;;5075929;28;20039;-64
2023/12/15 10:57:32;;;;;;;23.58;12.57;;;10.90;83.70;;;;;;5047153;28;20121;-64
2023/12/15 11:00:00;;;;;;;21.10;11.88;;;10.90;83.70;;;;;;5060300;28;20488;-64
2023/12/15 11:02:31;;;;;;;21.77;12.25;;;10.90;83.70;;;;;;5073738;28;20035;-64
2023/12/15 11:05:00;;;;;;;28.88;12.55;;;11.00;83.70;;;;;;5073715;28;20038;-64
2023/12/15 11:07:28;;;;;;;19.50;11.07;;;11.00;83.70;;;;;;5076044;28;20063;-64
2023/12/15 11:09:56;;;;;;;25.10;12.70;;;11.00;83.60;;;;;;5064572;28;20031;-64
2023/12/15 11:12:42;;;;;;;22.70;12.27;;;11.00;83.60;;;;;;5075992;28;20111;-64
2023/12/15 11:15:09;;;;;;;19.08;10.82;;;11.00;83.60;;;;;;5076162;28;20025;-65
2023/12/15 11:17:58;;;;;;;20.60;11.32;;;11.00;83.60;;;;;;5067175;28;20029;-64
2023/12/15 11:20:25;;;;;;;21.98;11.15;;;11.00;83.50;;;;;;5061406;28;20454;-64
2023/12/15 11:22:58;;;;;;;22.25;11.23;;;11.00;83.50;;;;;;5075575;28;20413;-64
2023/12/15 11:25:31;;;;;;;20.92;11.60;;;11.00;83.50;;;;;;5075476;28;20024;-64
2023/12/15 11:28:08;;;;;;;25.70;12.65;;;11.10;83.50;;;;;;5074943;28;20024;-65
2023/12/15 11:30:42;;;;;;;18.25;10.35;;;11.10;83.40;;;;;;5072992;28;20111;-64
2023/12/15 11:33:32;;;;;;;19.00;10.32;;;11.10;83.40;;;;;;5073968;28;20028;-64
2023/12/15 11:36:02;;;;;;;22.58;11.95;;;11.10;83.30;;;;;;5065975;28;20044;-64
2023/12/15 11:38:28;;;;;;;22.70;10.70;;;11.10;83.40;;;;;;5074959;28;20033;-65
2023/12/15 11:40:54;;;;;;;21.90;12.02;;;11.10;83.30;;;;;;5062239;28;20049;-64
2023/12/15 11:43:21;;;;;;;19.20;10.85;;;11.10;83.20;;;;;;5043914;28;20320;-64
2023/12/15 11:45:48;;;;;;;19.08;10.07;;;11.10;83.20;;;;;;5063035;28;20383;-64
2023/12/15 11:48:14;;;;;;;25.70;11.02;;;11.20;83.30;;;;;;5074369;28;20082;-64
2023/12/15 11:50:43;;;;;;;21.00;10.57;;;11.20;83.20;;;;;;5068888;28;20342;-64
2023/12/15 11:53:15;;;;;;;18.35;9.90;;;11.20;83.20;;;;;;5050113;28;20052;-64
2023/12/15 11:55:42;;;;;;;20.33;9.55;;;11.20;83.10;;;;;;5063995;28;20095;-65
2023/12/15 11:58:11;;;;;;;16.77;9.60;;;11.20;83.10;;;;;;5058261;28;20033;-64
2023/12/15 12:00:37;;;;;;;23.40;10.85;;;11.20;83.00;;;;;;5062035;28;20116;-64
2023/12/15 12:03:03;;;;;;;21.80;10.50;;;11.30;83.00;;;;;;5057262;28;20612;-64
2023/12/15 12:05:30;;;;;;;18.73;9.13;;;11.30;82.90;;;;;;5054131;28;20108;-64
2023/12/15 12:07:58;;;;;;;17.65;8.63;;;11.30;82.80;;;;;;5051328;28;20116;-64
2023/12/15 12:10:32;;;;;;;19.15;9.75;;;11.30;82.80;;;;;;5065043;28;20401;-64
2023/12/15 12:12:58;;;;;;;20.92;9.00;;;11.30;82.70;;;;;;5060336;28;20028;-65
2023/12/15 12:15:24;;;;;;;18.77;8.60;;;11.30;82.60;;;;;;5060023;28;20032;-65
2023/12/15 12:17:50;;;;;;;20.42;8.73;;;11.40;82.60;;;;;;5056238;28;20346;-65
2023/12/15 12:20:16;;;;;;;18.20;8.65;;;11.40;82.50;;;;;;5051868;28;20115;-64
2023/12/15 12:22:44;;;;;;;19.92;8.07;;;11.40;82.50;;;;;;5052955;28;20041;-64
2023/12/15 12:25:16;;;;;;;15.65;8.13;;;11.40;82.40;;;;;;5050648;28;20040;-66
2023/12/15 12:27:42;;;;;;;20.42;7.85;;;11.40;82.30;;;;;;5071079;28;20115;-64
2023/12/15 12:30:16;;;;;;;16.92;7.43;;;11.50;82.20;;;;;;5069782;28;20083;-64